Terminal Aerodrome Forecast
Issued by NWS

Home | Current Version | Previous Version | Text Only | Print | Product List | Glossary On
Versions: 1 2 3 4 5 6 7 8 9 10 11 12 13 14 15 16 17 18 19 20
000
FTUS43 KLSX 200500
TAFCPS
TAF
KCPS 200520Z 2006/2106 04005KT P6SM OVC150
     FM201000 07009KT P6SM OVC090
     FM201300 07010KT 5SM -RA BR OVC030
     FM201900 04007KT 3SM -DZ BR OVC010
     FM210000 01005KT 5SM BR OVC015
     FM210300 34004KT 5SM BR BKN025=

USA.gov is the U.S. government's official web portal to all federal, state and local government web resources and services.